sensor_id;sensor_type;location;lat;lon;timestamp;temperature;humidity
326;DHT22;150;52.352;14.058;2024-03-02T00:01:28;9.40;39.50
326;DHT22;150;52.352;14.058;2024-03-02T00:03:54;9.40;39.50
326;DHT22;150;52.352;14.058;2024-03-02T00:06:21;9.40;39.50
326;DHT22;150;52.352;14.058;2024-03-02T00:08:48;9.40;39.50
326;DHT22;150;52.352;14.058;2024-03-02T00:11:17;9.40;39.70
326;DHT22;150;52.352;14.058;2024-03-02T00:13:45;9.40;39.90
326;DHT22;150;52.352;14.058;2024-03-02T00:16:12;9.40;39.90
326;DHT22;150;52.352;14.058;2024-03-02T00:18:38;9.40;40.00
326;DHT22;150;52.352;14.058;2024-03-02T00:21:06;9.40;40.10
326;DHT22;150;52.352;14.058;2024-03-02T00:23:35;9.40;40.20
326;DHT22;150;52.352;14.058;2024-03-02T00:26:02;9.40;40.30
326;DHT22;150;52.352;14.058;2024-03-02T00:28:33;9.40;40.40
326;DHT22;150;52.352;14.058;2024-03-02T00:31:02;9.40;40.40
326;DHT22;150;52.352;14.058;2024-03-02T00:33:32;9.40;40.50
326;DHT22;150;52.352;14.058;2024-03-02T00:35:59;9.40;40.50
326;DHT22;150;52.352;14.058;2024-03-02T00:38:26;9.40;40.60
326;DHT22;150;52.352;14.058;2024-03-02T00:40:53;9.40;40.60
326;DHT22;150;52.352;14.058;2024-03-02T00:43:41;9.40;40.60
326;DHT22;150;52.352;14.058;2024-03-02T00:46:10;9.40;40.50
326;DHT22;150;52.352;14.058;2024-03-02T00:48:37;9.40;40.50
326;DHT22;150;52.352;14.058;2024-03-02T00:51:04;9.40;40.40
326;DHT22;150;52.352;14.058;2024-03-02T00:53:31;9.40;40.40
326;DHT22;150;52.352;14.058;2024-03-02T00:55:59;9.40;40.50
326;DHT22;150;52.352;14.058;2024-03-02T00:58:26;9.40;40.50
326;DHT22;150;52.352;14.058;2024-03-02T01:00:53;9.40;40.60
326;DHT22;150;52.352;14.058;2024-03-02T01:03:20;9.40;40.60
326;DHT22;150;52.352;14.058;2024-03-02T01:05:47;9.40;40.80
326;DHT22;150;52.352;14.058;2024-03-02T01:08:14;9.40;40.90
326;DHT22;150;52.352;14.058;2024-03-02T01:10:40;9.40;41.00
326;DHT22;150;52.352;14.058;2024-03-02T01:13:07;9.40;41.20
326;DHT22;150;52.352;14.058;2024-03-02T01:15:33;9.40;41.30
326;DHT22;150;52.352;14.058;2024-03-02T01:18:01;9.50;41.20
326;DHT22;150;52.352;14.058;2024-03-02T01:20:28;9.40;41.30
326;DHT22;150;52.352;14.058;2024-03-02T01:22:55;9.40;41.80
326;DHT22;150;52.352;14.058;2024-03-02T01:25:21;9.40;42.20
326;DHT22;150;52.352;14.058;2024-03-02T01:27:48;9.30;42.40
326;DHT22;150;52.352;14.058;2024-03-02T01:30:15;9.30;42.50
326;DHT22;150;52.352;14.058;2024-03-02T01:32:41;9.30;42.80
326;DHT22;150;52.352;14.058;2024-03-02T01:35:09;9.30;42.90
326;DHT22;150;52.352;14.058;2024-03-02T01:37:36;9.30;43.10
326;DHT22;150;52.352;14.058;2024-03-02T01:40:03;9.20;43.50
326;DHT22;150;52.352;14.058;2024-03-02T01:42:35;9.20;44.10
326;DHT22;150;52.352;14.058;2024-03-02T01:45:18;9.10;44.50
326;DHT22;150;52.352;14.058;2024-03-02T01:47:44;9.10;45.50
326;DHT22;150;52.352;14.058;2024-03-02T01:50:11;9.00;45.80
326;DHT22;150;52.352;14.058;2024-03-02T01:52:38;9.00;45.90
326;DHT22;150;52.352;14.058;2024-03-02T01:57:31;9.10;46.80
326;DHT22;150;52.352;14.058;2024-03-02T02:00:05;9.10;46.90
326;DHT22;150;52.352;14.058;2024-03-02T02:02:50;9.10;47.20
326;DHT22;150;52.352;14.058;2024-03-02T02:05:22;9.10;46.90
326;DHT22;150;52.352;14.058;2024-03-02T02:08:01;9.10;47.20
326;DHT22;150;52.352;14.058;2024-03-02T02:10:33;9.20;47.40
326;DHT22;150;52.352;14.058;2024-03-02T02:15:51;9.30;47.20
326;DHT22;150;52.352;14.058;2024-03-02T02:19:37;9.30;47.10
326;DHT22;150;52.352;14.058;2024-03-02T02:22:48;9.20;47.30
326;DHT22;150;52.352;14.058;2024-03-02T02:25:47;9.20;47.60
326;DHT22;150;52.352;14.058;2024-03-02T02:28:34;9.10;48.20
326;DHT22;150;52.352;14.058;2024-03-02T02:31:07;9.20;48.80
326;DHT22;150;52.352;14.058;2024-03-02T02:33:41;9.20;48.60
326;DHT22;150;52.352;14.058;2024-03-02T02:36:32;9.20;48.60
326;DHT22;150;52.352;14.058;2024-03-02T02:39:33;9.20;49.00
326;DHT22;150;52.352;14.058;2024-03-02T02:42:10;9.20;49.00
326;DHT22;150;52.352;14.058;2024-03-02T02:44:54;9.20;49.30
326;DHT22;150;52.352;14.058;2024-03-02T02:47:50;9.20;49.30
326;DHT22;150;52.352;14.058;2024-03-02T02:50:22;9.30;49.40
326;DHT22;150;52.352;14.058;2024-03-02T02:52:52;9.20;49.30
326;DHT22;150;52.352;14.058;2024-03-02T02:55:27;9.30;49.40
326;DHT22;150;52.352;14.058;2024-03-02T02:58:14;9.30;49.60
326;DHT22;150;52.352;14.058;2024-03-02T03:00:49;9.40;49.50
326;DHT22;150;52.352;14.058;2024-03-02T03:03:26;9.50;49.30
326;DHT22;150;52.352;14.058;2024-03-02T03:05:56;9.50;49.10
326;DHT22;150;52.352;14.058;2024-03-02T03:08:28;9.50;48.80
326;DHT22;150;52.352;14.058;2024-03-02T03:11:07;9.50;49.50
326;DHT22;150;52.352;14.058;2024-03-02T03:13:35;9.50;48.90
326;DHT22;150;52.352;14.058;2024-03-02T03:16:03;9.50;49.30
326;DHT22;150;52.352;14.058;2024-03-02T03:18:40;9.40;49.50
326;DHT22;150;52.352;14.058;2024-03-02T03:21:12;9.50;50.00
326;DHT22;150;52.352;14.058;2024-03-02T03:23:42;9.40;50.10
326;DHT22;150;52.352;14.058;2024-03-02T03:26:21;9.40;50.10
326;DHT22;150;52.352;14.058;2024-03-02T03:28:52;9.40;50.60
326;DHT22;150;52.352;14.058;2024-03-02T03:31:19;9.40;50.80
326;DHT22;150;52.352;14.058;2024-03-02T03:33:49;9.50;50.80
326;DHT22;150;52.352;14.058;2024-03-02T03:36:18;9.50;50.50
326;DHT22;150;52.352;14.058;2024-03-02T03:38:47;9.60;50.40
326;DHT22;150;52.352;14.058;2024-03-02T03:41:19;9.50;50.00
326;DHT22;150;52.352;14.058;2024-03-02T03:43:49;9.50;51.00
326;DHT22;150;52.352;14.058;2024-03-02T03:46:23;9.60;50.40
326;DHT22;150;52.352;14.058;2024-03-02T03:48:53;9.60;50.20
326;DHT22;150;52.352;14.058;2024-03-02T03:51:28;9.70;49.70
326;DHT22;150;52.352;14.058;2024-03-02T03:53:58;9.50;50.40
326;DHT22;150;52.352;14.058;2024-03-02T03:56:31;9.60;50.70
326;DHT22;150;52.352;14.058;2024-03-02T03:59:02;9.60;50.80
326;DHT22;150;52.352;14.058;2024-03-02T04:01:43;9.60;50.90
326;DHT22;150;52.352;14.058;2024-03-02T04:04:17;9.60;50.90
326;DHT22;150;52.352;14.058;2024-03-02T04:06:50;9.60;50.70
326;DHT22;150;52.352;14.058;2024-03-02T04:09:17;9.60;50.80
326;DHT22;150;52.352;14.058;2024-03-02T04:11:59;9.60;51.00
326;DHT22;150;52.352;14.058;2024-03-02T04:14:34;9.60;50.70
326;DHT22;150;52.352;14.058;2024-03-02T04:17:04;9.50;51.10
326;DHT22;150;52.352;14.058;2024-03-02T04:19:43;9.50;52.00
326;DHT22;150;52.352;14.058;2024-03-02T04:22:18;9.40;52.00
326;DHT22;150;52.352;14.058;2024-03-02T04:24:49;9.40;53.10
326;DHT22;150;52.352;14.058;2024-03-02T04:27:21;9.40;53.40
326;DHT22;150;52.352;14.058;2024-03-02T04:29:59;9.50;53.70
326;DHT22;150;52.352;14.058;2024-03-02T04:32:42;9.60;53.70
326;DHT22;150;52.352;14.058;2024-03-02T04:35:12;9.60;53.10
326;DHT22;150;52.352;14.058;2024-03-02T04:37:39;9.70;52.70
326;DHT22;150;52.352;14.058;2024-03-02T04:40:09;9.70;52.20
326;DHT22;150;52.352;14.058;2024-03-02T04:42:42;9.70;52.00
326;DHT22;150;52.352;14.058;2024-03-02T04:47:50;9.80;52.10
326;DHT22;150;52.352;14.058;2024-03-02T04:50:25;9.70;51.50
326;DHT22;150;52.352;14.058;2024-03-02T04:52:55;9.70;51.30
326;DHT22;150;52.352;14.058;2024-03-02T04:55:21;9.70;52.00
326;DHT22;150;52.352;14.058;2024-03-02T04:58:23;9.80;52.20
326;DHT22;150;52.352;14.058;2024-03-02T05:00:52;9.80;52.00
326;DHT22;150;52.352;14.058;2024-03-02T05:03:28;9.90;52.10
326;DHT22;150;52.352;14.058;2024-03-02T05:06:04;9.80;51.20
326;DHT22;150;52.352;14.058;2024-03-02T05:08:34;9.70;51.70
326;DHT22;150;52.352;14.058;2024-03-02T05:11:02;9.70;52.40
326;DHT22;150;52.352;14.058;2024-03-02T05:13:43;9.70;52.50
326;DHT22;150;52.352;14.058;2024-03-02T05:16:12;9.70;52.80
326;DHT22;150;52.352;14.058;2024-03-02T05:18:40;9.70;52.00
326;DHT22;150;52.352;14.058;2024-03-02T05:21:12;9.70;52.10
326;DHT22;150;52.352;14.058;2024-03-02T05:23:39;9.70;52.50
326;DHT22;150;52.352;14.058;2024-03-02T05:26:22;9.70;52.30
326;DHT22;150;52.352;14.058;2024-03-02T05:29:00;9.70;52.80
326;DHT22;150;52.352;14.058;2024-03-02T05:32:00;9.80;52.90
326;DHT22;150;52.352;14.058;2024-03-02T05:34:48;9.80;52.90
326;DHT22;150;52.352;14.058;2024-03-02T05:37:59;9.90;52.80
326;DHT22;150;52.352;14.058;2024-03-02T05:40:42;10.00;52.40
326;DHT22;150;52.352;14.058;2024-03-02T05:43:26;10.00;52.20
326;DHT22;150;52.352;14.058;2024-03-02T05:46:10;10.00;51.70
326;DHT22;150;52.352;14.058;2024-03-02T05:49:23;10.10;51.40
326;DHT22;150;52.352;14.058;2024-03-02T05:51:53;10.10;51.00
326;DHT22;150;52.352;14.058;2024-03-02T05:54:25;10.20;50.20
326;DHT22;150;52.352;14.058;2024-03-02T05:56:52;10.20;50.10
326;DHT22;150;52.352;14.058;2024-03-02T05:59:25;10.20;50.20
326;DHT22;150;52.352;14.058;2024-03-02T06:01:55;10.20;50.20
326;DHT22;150;52.352;14.058;2024-03-02T06:04:30;10.20;50.90
326;DHT22;150;52.352;14.058;2024-03-02T06:07:07;10.20;50.10
326;DHT22;150;52.352;14.058;2024-03-02T06:09:37;10.20;50.00
326;DHT22;150;52.352;14.058;2024-03-02T06:12:04;10.20;49.90
326;DHT22;150;52.352;14.058;2024-03-02T06:14:31;10.20;49.70
326;DHT22;150;52.352;14.058;2024-03-02T06:16:58;10.20;49.50
326;DHT22;150;52.352;14.058;2024-03-02T06:19:32;10.20;49.20
326;DHT22;150;52.352;14.058;2024-03-02T06:22:11;10.20;49.20
326;DHT22;150;52.352;14.058;2024-03-02T06:24:38;10.30;49.20
326;DHT22;150;52.352;14.058;2024-03-02T06:27:15;10.30;49.20
326;DHT22;150;52.352;14.058;2024-03-02T06:29:45;10.30;49.10
326;DHT22;150;52.352;14.058;2024-03-02T06:32:26;10.30;49.00
326;DHT22;150;52.352;14.058;2024-03-02T06:35:14;10.30;48.60
326;DHT22;150;52.352;14.058;2024-03-02T06:37:51;10.30;48.50
326;DHT22;150;52.352;14.058;2024-03-02T06:40:47;10.30;48.40
326;DHT22;150;52.352;14.058;2024-03-02T06:43:41;10.30;48.50
326;DHT22;150;52.352;14.058;2024-03-02T06:46:11;10.30;48.60
326;DHT22;150;52.352;14.058;2024-03-02T06:48:58;10.30;48.60
326;DHT22;150;52.352;14.058;2024-03-02T06:53:04;10.30;48.60
326;DHT22;150;52.352;14.058;2024-03-02T06:57:58;10.30;48.40
326;DHT22;150;52.352;14.058;2024-03-02T07:00:58;10.30;48.30
326;DHT22;150;52.352;14.058;2024-03-02T07:04:03;10.40;48.20
326;DHT22;150;52.352;14.058;2024-03-02T07:06:45;10.30;48.20
326;DHT22;150;52.352;14.058;2024-03-02T07:09:21;10.20;48.40
326;DHT22;150;52.352;14.058;2024-03-02T07:12:06;10.10;49.20
326;DHT22;150;52.352;14.058;2024-03-02T07:14:56;10.10;50.10
326;DHT22;150;52.352;14.058;2024-03-02T07:18:12;10.10;50.30
326;DHT22;150;52.352;14.058;2024-03-02T07:20:55;10.20;50.20
326;DHT22;150;52.352;14.058;2024-03-02T07:23:24;10.20;50.50
326;DHT22;150;52.352;14.058;2024-03-02T07:25:58;10.20;50.40
326;DHT22;150;52.352;14.058;2024-03-02T07:28:29;10.30;50.30
326;DHT22;150;52.352;14.058;2024-03-02T07:30:59;10.30;50.20
326;DHT22;150;52.352;14.058;2024-03-02T07:33:54;10.30;50.10
326;DHT22;150;52.352;14.058;2024-03-02T07:36:52;10.40;50.90
326;DHT22;150;52.352;14.058;2024-03-02T07:40:13;10.40;50.00
326;DHT22;150;52.352;14.058;2024-03-02T07:47:02;10.30;49.50
326;DHT22;150;52.352;14.058;2024-03-02T07:50:23;10.30;49.50
326;DHT22;150;52.352;14.058;2024-03-02T07:53:11;10.30;49.60
326;DHT22;150;52.352;14.058;2024-03-02T07:55:40;10.30;49.50
326;DHT22;150;52.352;14.058;2024-03-02T07:58:22;10.30;49.70
326;DHT22;150;52.352;14.058;2024-03-02T08:01:05;10.30;49.50
326;DHT22;150;52.352;14.058;2024-03-02T08:03:52;10.40;49.60
326;DHT22;150;52.352;14.058;2024-03-02T08:06:30;10.40;49.30
326;DHT22;150;52.352;14.058;2024-03-02T08:09:17;10.40;49.00
326;DHT22;150;52.352;14.058;2024-03-02T08:11:44;10.50;49.20
326;DHT22;150;52.352;14.058;2024-03-02T08:14:13;10.50;49.20
326;DHT22;150;52.352;14.058;2024-03-02T08:16:44;10.50;48.90
326;DHT22;150;52.352;14.058;2024-03-02T08:19:15;10.60;48.80
326;DHT22;150;52.352;14.058;2024-03-02T08:21:44;10.70;48.60
326;DHT22;150;52.352;14.058;2024-03-02T08:24:14;10.70;48.30
326;DHT22;150;52.352;14.058;2024-03-02T08:26:42;10.70;48.50
326;DHT22;150;52.352;14.058;2024-03-02T08:29:10;10.70;47.70
326;DHT22;150;52.352;14.058;2024-03-02T08:31:50;10.80;47.60
326;DHT22;150;52.352;14.058;2024-03-02T08:34:23;10.80;47.10
326;DHT22;150;52.352;14.058;2024-03-02T08:36:55;10.80;47.00
326;DHT22;150;52.352;14.058;2024-03-02T08:39:23;10.80;47.10
326;DHT22;150;52.352;14.058;2024-03-02T08:41:56;10.80;47.50
326;DHT22;150;52.352;14.058;2024-03-02T08:44:29;10.80;46.90
326;DHT22;150;52.352;14.058;2024-03-02T08:47:00;10.80;46.60
326;DHT22;150;52.352;14.058;2024-03-02T08:49:32;10.80;46.80
326;DHT22;150;52.352;14.058;2024-03-02T08:52:07;10.80;46.20
326;DHT22;150;52.352;14.058;2024-03-02T08:54:40;10.80;46.30
326;DHT22;150;52.352;14.058;2024-03-02T08:57:20;10.90;46.50
326;DHT22;150;52.352;14.058;2024-03-02T08:59:48;10.90;45.60
326;DHT22;150;52.352;14.058;2024-03-02T09:02:19;11.00;45.70
326;DHT22;150;52.352;14.058;2024-03-02T09:04:57;11.10;45.80
326;DHT22;150;52.352;14.058;2024-03-02T09:07:27;11.20;45.30
326;DHT22;150;52.352;14.058;2024-03-02T09:09:54;11.30;44.80
326;DHT22;150;52.352;14.058;2024-03-02T09:12:40;11.30;44.00
326;DHT22;150;52.352;14.058;2024-03-02T09:15:10;11.40;44.00
326;DHT22;150;52.352;14.058;2024-03-02T09:17:44;11.40;42.90
326;DHT22;150;52.352;14.058;2024-03-02T09:20:20;11.50;42.70
326;DHT22;150;52.352;14.058;2024-03-02T09:22:55;11.50;42.30
326;DHT22;150;52.352;14.058;2024-03-02T09:25:33;11.60;42.00
326;DHT22;150;52.352;14.058;2024-03-02T09:28:09;11.60;40.90
326;DHT22;150;52.352;14.058;2024-03-02T09:30:36;11.50;40.90
326;DHT22;150;52.352;14.058;2024-03-02T09:33:20;11.60;41.00
326;DHT22;150;52.352;14.058;2024-03-02T09:35:59;11.50;40.70
326;DHT22;150;52.352;14.058;2024-03-02T09:38:38;11.50;40.00
326;DHT22;150;52.352;14.058;2024-03-02T09:41:21;11.50;40.70
326;DHT22;150;52.352;14.058;2024-03-02T09:44:08;11.60;40.80
326;DHT22;150;52.352;14.058;2024-03-02T09:46:55;11.70;40.90
326;DHT22;150;52.352;14.058;2024-03-02T09:52:58;11.70;39.20
326;DHT22;150;52.352;14.058;2024-03-02T09:55:59;11.70;38.60
326;DHT22;150;52.352;14.058;2024-03-02T09:58:55;11.80;39.10
326;DHT22;150;52.352;14.058;2024-03-02T10:02:11;11.80;37.90
326;DHT22;150;52.352;14.058;2024-03-02T10:04:51;11.50;38.10
326;DHT22;150;52.352;14.058;2024-03-02T10:07:38;11.60;38.30
326;DHT22;150;52.352;14.058;2024-03-02T10:10:14;11.70;38.50
326;DHT22;150;52.352;14.058;2024-03-02T10:12:52;11.70;37.90
326;DHT22;150;52.352;14.058;2024-03-02T10:15:33;11.60;37.00
326;DHT22;150;52.352;14.058;2024-03-02T10:18:00;11.60;36.90
326;DHT22;150;52.352;14.058;2024-03-02T10:20:36;11.60;36.40
326;DHT22;150;52.352;14.058;2024-03-02T10:23:21;11.50;36.60
326;DHT22;150;52.352;14.058;2024-03-02T10:25:50;11.40;35.50
326;DHT22;150;52.352;14.058;2024-03-02T10:28:27;11.40;36.10
326;DHT22;150;52.352;14.058;2024-03-02T10:31:09;11.40;36.50
326;DHT22;150;52.352;14.058;2024-03-02T10:33:40;11.40;36.20
326;DHT22;150;52.352;14.058;2024-03-02T10:36:08;11.50;36.40
326;DHT22;150;52.352;14.058;2024-03-02T10:38:36;11.60;37.20
326;DHT22;150;52.352;14.058;2024-03-02T10:41:09;11.90;36.20
326;DHT22;150;52.352;14.058;2024-03-02T10:43:36;11.90;35.90
326;DHT22;150;52.352;14.058;2024-03-02T10:46:04;12.10;36.10
326;DHT22;150;52.352;14.058;2024-03-02T10:48:48;12.10;35.10
326;DHT22;150;52.352;14.058;2024-03-02T10:51:20;12.20;35.20
326;DHT22;150;52.352;14.058;2024-03-02T10:54:21;12.30;34.50
326;DHT22;150;52.352;14.058;2024-03-02T10:56:58;12.40;33.30
326;DHT22;150;52.352;14.058;2024-03-02T10:59:35;12.40;33.60
326;DHT22;150;52.352;14.058;2024-03-02T11:36:09;13.10;31.40
326;DHT22;150;52.352;14.058;2024-03-02T11:50:37;13.10;29.60
326;DHT22;150;52.352;14.058;2024-03-02T11:57:26;13.30;29.90
326;DHT22;150;52.352;14.058;2024-03-02T12:01:37;13.40;29.50
326;DHT22;150;52.352;14.058;2024-03-02T12:08:30;13.70;28.90
326;DHT22;150;52.352;14.058;2024-03-02T12:41:46;14.50;25.20
326;DHT22;150;52.352;14.058;2024-03-02T12:45:34;14.40;24.90
326;DHT22;150;52.352;14.058;2024-03-02T12:49:04;14.10;25.10
326;DHT22;150;52.352;14.058;2024-03-02T12:52:16;14.00;25.30
326;DHT22;150;52.352;14.058;2024-03-02T12:59:29;13.90;25.40
326;DHT22;150;52.352;14.058;2024-03-02T13:09:54;13.70;26.10
326;DHT22;150;52.352;14.058;2024-03-02T13:27:31;13.60;26.70
326;DHT22;150;52.352;14.058;2024-03-02T13:30:47;13.60;26.70
326;DHT22;150;52.352;14.058;2024-03-02T13:42:38;13.50;27.30
326;DHT22;150;52.352;14.058;2024-03-02T14:14:43;13.40;27.30
326;DHT22;150;52.352;14.058;2024-03-02T14:18:05;13.30;27.10
326;DHT22;150;52.352;14.058;2024-03-02T14:24:30;13.60;27.70
326;DHT22;150;52.352;14.058;2024-03-02T14:27:23;13.70;27.40
326;DHT22;150;52.352;14.058;2024-03-02T14:30:26;13.70;27.40
326;DHT22;150;52.352;14.058;2024-03-02T14:36:11;13.60;26.50
326;DHT22;150;52.352;14.058;2024-03-02T14:38:52;13.60;26.50
326;DHT22;150;52.352;14.058;2024-03-02T14:56:32;13.40;25.50
326;DHT22;150;52.352;14.058;2024-03-02T15:03:40;13.30;26.60
326;DHT22;150;52.352;14.058;2024-03-02T15:53:44;13.10;27.50
326;DHT22;150;52.352;14.058;2024-03-02T15:57:11;13.10;27.40
326;DHT22;150;52.352;14.058;2024-03-02T16:00:20;13.10;27.60
326;DHT22;150;52.352;14.058;2024-03-02T16:03:33;13.20;27.50
326;DHT22;150;52.352;14.058;2024-03-02T16:07:12;13.10;27.70
326;DHT22;150;52.352;14.058;2024-03-02T16:25:37;12.90;28.60
326;DHT22;150;52.352;14.058;2024-03-02T16:33:22;12.90;28.80
326;DHT22;150;52.352;14.058;2024-03-02T16:43:32;12.80;29.30
326;DHT22;150;52.352;14.058;2024-03-02T16:46:52;12.80;29.30
326;DHT22;150;52.352;14.058;2024-03-02T16:52:38;12.70;29.50
326;DHT22;150;52.352;14.058;2024-03-02T16:55:23;12.70;29.50
326;DHT22;150;52.352;14.058;2024-03-02T16:58:10;12.70;29.50
326;DHT22;150;52.352;14.058;2024-03-02T17:00:41;12.60;29.60
326;DHT22;150;52.352;14.058;2024-03-02T17:03:10;12.50;29.70
326;DHT22;150;52.352;14.058;2024-03-02T17:05:40;12.40;29.90
326;DHT22;150;52.352;14.058;2024-03-02T17:08:21;12.40;30.10
326;DHT22;150;52.352;14.058;2024-03-02T17:10:57;12.40;30.50
326;DHT22;150;52.352;14.058;2024-03-02T17:14:04;12.30;30.70
326;DHT22;150;52.352;14.058;2024-03-02T17:16:54;12.20;30.70
326;DHT22;150;52.352;14.058;2024-03-02T17:19:42;12.20;30.90
326;DHT22;150;52.352;14.058;2024-03-02T17:22:28;12.20;31.30
326;DHT22;150;52.352;14.058;2024-03-02T17:25:04;12.20;31.30
326;DHT22;150;52.352;14.058;2024-03-02T17:27:38;12.10;31.30
326;DHT22;150;52.352;14.058;2024-03-02T17:30:06;12.10;31.50
326;DHT22;150;52.352;14.058;2024-03-02T17:32:54;12.00;31.60
326;DHT22;150;52.352;14.058;2024-03-02T17:43:38;11.80;31.60
326;DHT22;150;52.352;14.058;2024-03-02T17:46:23;11.70;31.60
326;DHT22;150;52.352;14.058;2024-03-02T17:48:53;11.70;31.80
326;DHT22;150;52.352;14.058;2024-03-02T17:52:02;11.60;31.90
326;DHT22;150;52.352;14.058;2024-03-02T18:06:05;11.30;32.50
326;DHT22;150;52.352;14.058;2024-03-02T18:15:46;11.20;33.10
326;DHT22;150;52.352;14.058;2024-03-02T18:18:14;11.10;33.20
326;DHT22;150;52.352;14.058;2024-03-02T18:20:40;11.10;33.40
326;DHT22;150;52.352;14.058;2024-03-02T18:23:07;11.10;33.40
326;DHT22;150;52.352;14.058;2024-03-02T18:25:34;11.00;33.60
326;DHT22;150;52.352;14.058;2024-03-02T18:28:01;11.00;33.80
326;DHT22;150;52.352;14.058;2024-03-02T18:31:15;11.00;34.50
326;DHT22;150;52.352;14.058;2024-03-02T19:39:29;10.10;35.90
326;DHT22;150;52.352;14.058;2024-03-02T19:45:48;10.00;36.20
326;DHT22;150;52.352;14.058;2024-03-02T19:48:14;10.00;36.40
326;DHT22;150;52.352;14.058;2024-03-02T19:50:42;10.00;36.50
326;DHT22;150;52.352;14.058;2024-03-02T19:53:09;10.00;36.50
326;DHT22;150;52.352;14.058;2024-03-02T19:55:36;10.00;36.50
326;DHT22;150;52.352;14.058;2024-03-02T20:00:31;9.90;36.50
326;DHT22;150;52.352;14.058;2024-03-02T20:02:59;9.90;36.50
326;DHT22;150;52.352;14.058;2024-03-02T20:05:26;9.90;36.50
326;DHT22;150;52.352;14.058;2024-03-02T20:07:52;9.80;36.50
326;DHT22;150;52.352;14.058;2024-03-02T20:10:19;9.80;36.50
326;DHT22;150;52.352;14.058;2024-03-02T20:12:46;9.80;36.60
326;DHT22;150;52.352;14.058;2024-03-02T20:15:13;9.80;36.70
326;DHT22;150;52.352;14.058;2024-03-02T20:17:43;9.80;36.60
326;DHT22;150;52.352;14.058;2024-03-02T20:20:12;9.70;36.70
326;DHT22;150;52.352;14.058;2024-03-02T20:22:41;9.70;36.60
326;DHT22;150;52.352;14.058;2024-03-02T20:25:14;9.70;36.60
326;DHT22;150;52.352;14.058;2024-03-02T20:27:41;9.60;36.50
326;DHT22;150;52.352;14.058;2024-03-02T20:30:10;9.60;36.80
326;DHT22;150;52.352;14.058;2024-03-02T20:32:37;9.60;36.90
326;DHT22;150;52.352;14.058;2024-03-02T20:35:05;9.50;37.10
326;DHT22;150;52.352;14.058;2024-03-02T20:37:37;9.50;37.10
326;DHT22;150;52.352;14.058;2024-03-02T20:40:08;9.50;37.20
326;DHT22;150;52.352;14.058;2024-03-02T20:42:35;9.50;37.00
326;DHT22;150;52.352;14.058;2024-03-02T20:45:05;9.50;37.10
326;DHT22;150;52.352;14.058;2024-03-02T20:47:32;9.40;37.10
326;DHT22;150;52.352;14.058;2024-03-02T20:49:59;9.40;36.90
326;DHT22;150;52.352;14.058;2024-03-02T20:52:25;9.40;37.00
326;DHT22;150;52.352;14.058;2024-03-02T20:54:56;9.30;37.00
326;DHT22;150;52.352;14.058;2024-03-02T20:57:24;9.30;37.10
326;DHT22;150;52.352;14.058;2024-03-02T20:59:51;9.30;36.90
326;DHT22;150;52.352;14.058;2024-03-02T21:02:18;9.20;37.10
326;DHT22;150;52.352;14.058;2024-03-02T21:04:45;9.20;37.40
326;DHT22;150;52.352;14.058;2024-03-02T21:07:12;9.10;37.50
326;DHT22;150;52.352;14.058;2024-03-02T21:09:39;9.10;37.60
326;DHT22;150;52.352;14.058;2024-03-02T21:12:07;9.10;37.30
326;DHT22;150;52.352;14.058;2024-03-02T21:14:34;9.00;37.20
326;DHT22;150;52.352;14.058;2024-03-02T21:17:02;9.00;37.20
326;DHT22;150;52.352;14.058;2024-03-02T21:19:30;8.90;37.10
326;DHT22;150;52.352;14.058;2024-03-02T21:21:56;8.90;37.90
326;DHT22;150;52.352;14.058;2024-03-02T21:24:23;8.90;37.30
326;DHT22;150;52.352;14.058;2024-03-02T21:26:50;8.80;37.30
326;DHT22;150;52.352;14.058;2024-03-02T21:29:19;8.80;37.30
326;DHT22;150;52.352;14.058;2024-03-02T21:31:49;8.70;37.60
326;DHT22;150;52.352;14.058;2024-03-02T21:34:16;8.70;37.90
326;DHT22;150;52.352;14.058;2024-03-02T21:36:43;8.70;37.50
326;DHT22;150;52.352;14.058;2024-03-02T21:39:09;8.60;37.80
326;DHT22;150;52.352;14.058;2024-03-02T21:41:36;8.50;37.90
326;DHT22;150;52.352;14.058;2024-03-02T21:44:03;8.50;37.80
326;DHT22;150;52.352;14.058;2024-03-02T21:46:31;8.40;37.50
326;DHT22;150;52.352;14.058;2024-03-02T21:48:58;8.40;37.40
326;DHT22;150;52.352;14.058;2024-03-02T21:51:24;8.40;37.50
326;DHT22;150;52.352;14.058;2024-03-02T21:53:52;8.30;37.60
326;DHT22;150;52.352;14.058;2024-03-02T21:56:19;8.30;37.90
326;DHT22;150;52.352;14.058;2024-03-02T21:58:47;8.30;38.10
326;DHT22;150;52.352;14.058;2024-03-02T22:01:14;8.20;38.00
326;DHT22;150;52.352;14.058;2024-03-02T22:03:42;8.20;38.00
326;DHT22;150;52.352;14.058;2024-03-02T22:06:10;8.20;38.30
326;DHT22;150;52.352;14.058;2024-03-02T22:08:37;8.10;38.30
326;DHT22;150;52.352;14.058;2024-03-02T22:11:04;8.10;37.90
326;DHT22;150;52.352;14.058;2024-03-02T22:13:31;8.10;37.90
326;DHT22;150;52.352;14.058;2024-03-02T22:15:57;8.10;37.90
326;DHT22;150;52.352;14.058;2024-03-02T22:18:24;8.00;37.80
326;DHT22;150;52.352;14.058;2024-03-02T22:20:52;8.00;37.90
326;DHT22;150;52.352;14.058;2024-03-02T22:23:18;8.00;37.80
326;DHT22;150;52.352;14.058;2024-03-02T22:25:46;7.90;38.80
326;DHT22;150;52.352;14.058;2024-03-02T22:28:13;7.90;38.70
326;DHT22;150;52.352;14.058;2024-03-02T22:30:39;7.90;38.70
326;DHT22;150;52.352;14.058;2024-03-02T22:33:06;7.80;38.90
326;DHT22;150;52.352;14.058;2024-03-02T22:35:33;7.80;39.00
326;DHT22;150;52.352;14.058;2024-03-02T22:38:00;7.80;39.10
326;DHT22;150;52.352;14.058;2024-03-02T22:40:27;7.70;38.90
326;DHT22;150;52.352;14.058;2024-03-02T22:42:54;7.70;38.70
326;DHT22;150;52.352;14.058;2024-03-02T22:45:23;7.70;38.70
326;DHT22;150;52.352;14.058;2024-03-02T22:47:50;7.70;38.70
326;DHT22;150;52.352;14.058;2024-03-02T22:50:17;7.60;38.60
326;DHT22;150;52.352;14.058;2024-03-02T22:52:43;7.60;38.60
326;DHT22;150;52.352;14.058;2024-03-02T22:55:12;7.60;38.90
326;DHT22;150;52.352;14.058;2024-03-02T22:57:39;7.60;39.20
326;DHT22;150;52.352;14.058;2024-03-02T23:00:06;7.50;39.00
326;DHT22;150;52.352;14.058;2024-03-02T23:02:54;7.50;39.20
326;DHT22;150;52.352;14.058;2024-03-02T23:05:21;7.50;38.80
326;DHT22;150;52.352;14.058;2024-03-02T23:07:48;7.50;38.90
326;DHT22;150;52.352;14.058;2024-03-02T23:10:16;7.50;39.40
326;DHT22;150;52.352;14.058;2024-03-02T23:12:44;7.50;39.10
326;DHT22;150;52.352;14.058;2024-03-02T23:15:11;7.40;39.10
326;DHT22;150;52.352;14.058;2024-03-02T23:17:38;7.40;39.20
326;DHT22;150;52.352;14.058;2024-03-02T23:20:05;7.40;39.30
326;DHT22;150;52.352;14.058;2024-03-02T23:22:33;7.40;39.60
326;DHT22;150;52.352;14.058;2024-03-02T23:24:59;7.40;39.70
326;DHT22;150;52.352;14.058;2024-03-02T23:27:27;7.40;39.50
326;DHT22;150;52.352;14.058;2024-03-02T23:29:54;7.40;39.20
326;DHT22;150;52.352;14.058;2024-03-02T23:32:20;7.40;38.80
326;DHT22;150;52.352;14.058;2024-03-02T23:34:48;7.30;38.80
326;DHT22;150;52.352;14.058;2024-03-02T23:37:14;7.30;39.30
326;DHT22;150;52.352;14.058;2024-03-02T23:39:41;7.30;39.40